Time;durP1;ratioP1;P1;durP2;ratioP2;P2;SDS_P1;SDS_P2;PMS_P1;PMS_P2;Temp;Humidity;BMP_temperature;BMP_pressure;BME280_temperature;BME280_humidity;BME280_pressure;Samples;Min_cycle;Max_cycle;Signal;HPM_P1;HPM_P2
2023/08/12 00:01:12;;;;;;;5.53;3.67;;;;;;;12.08;100.00;98398.03;6232105;28;20243;-51
2023/08/12 00:04:15;;;;;;;4.50;3.33;;;;;;;12.06;100.00;98392.09;6231267;28;20306;-52
2023/08/12 00:07:17;;;;;;;3.57;3.00;;;;;;;12.06;100.00;98396.63;6231210;28;20430;-51
2023/08/12 00:10:19;;;;;;;4.90;3.60;;;;;;;11.99;100.00;98383.41;6222727;28;20321;-52
2023/08/12 00:13:21;;;;;;;5.10;3.63;;;;;;;12.04;100.00;98388.84;6231645;28;20232;-49
2023/08/12 00:16:23;;;;;;;3.87;3.53;;;;;;;12.06;100.00;98385.94;6231002;28;20238;-49
2023/08/12 00:19:24;;;;;;;4.10;3.73;;;;;;;11.96;100.00;98372.38;6230648;28;20658;-51
2023/08/12 00:22:26;;;;;;;4.10;3.70;;;;;;;11.95;100.00;98365.41;6227777;28;20235;-50
2023/08/12 00:25:28;;;;;;;3.60;3.30;;;;;;;12.01;100.00;98380.47;6231664;28;20748;-50
2023/08/12 00:28:30;;;;;;;5.13;3.53;;;;;;;11.95;100.00;98382.22;6230170;28;20243;-52
2023/08/12 00:31:32;;;;;;;3.53;3.17;;;;;;;11.94;100.00;98380.63;6214078;28;20264;-50
2023/08/12 00:34:34;;;;;;;3.70;3.40;;;;;;;11.96;100.00;98389.19;6213280;28;20240;-53
2023/08/12 00:37:36;;;;;;;6.40;3.70;;;;;;;11.98;100.00;98383.66;6230760;28;20609;-51
2023/08/12 00:40:38;;;;;;;3.37;3.13;;;;;;;11.99;100.00;98386.06;6230751;28;20370;-52
2023/08/12 00:43:40;;;;;;;5.83;3.10;;;;;;;12.00;100.00;98387.69;6229979;28;20231;-48
2023/08/12 00:46:42;;;;;;;3.47;3.17;;;;;;;12.03;100.00;98392.56;6231150;28;20381;-52
2023/08/12 00:49:45;;;;;;;2.90;2.70;;;;;;;12.04;100.00;98386.19;6230397;28;20711;-48
2023/08/12 00:52:49;;;;;;;5.10;2.87;;;;;;;12.04;100.00;98383.50;6209397;28;20232;-52
2023/08/12 00:55:51;;;;;;;3.10;2.77;;;;;;;12.06;100.00;98388.59;6208867;28;20224;-51
2023/08/12 00:58:53;;;;;;;4.40;2.90;;;;;;;12.04;100.00;98382.69;6212787;28;20332;-52
2023/08/12 01:01:55;;;;;;;3.77;2.77;;;;;;;12.00;100.00;98382.34;6227134;28;20236;-51
2023/08/12 01:04:58;;;;;;;3.67;2.90;;;;;;;11.96;100.00;98385.72;6229605;28;20749;-51
2023/08/12 01:08:00;;;;;;;2.80;2.60;;;;;;;11.94;100.00;98377.94;6226443;28;20231;-50
2023/08/12 01:11:18;;;;;;;3.67;3.33;;;;;;;11.94;100.00;98380.63;6230143;28;20235;-51
2023/08/12 01:14:51;;;;;;;3.80;3.17;;;;;;;11.88;100.00;98377.03;6235188;28;20243;-49
2023/08/12 01:17:55;;;;;;;4.93;3.00;;;;;;;11.88;100.00;98386.91;6201508;28;20910;-53
2023/08/12 01:20:58;;;;;;;3.03;2.77;;;;;;;11.84;100.00;98388.41;6230439;28;20378;-52
2023/08/12 01:24:01;;;;;;;3.70;2.50;;;;;;;11.83;100.00;98384.91;6230269;28;20342;-49
2023/08/12 01:27:04;;;;;;;3.37;2.67;;;;;;;11.84;100.00;98380.38;6228495;28;20240;-53
2023/08/12 01:30:10;;;;;;;3.97;3.00;;;;;;;11.82;100.00;98382.47;6235237;28;20216;-50
2023/08/12 01:33:24;;;;;;;2.77;2.57;;;;;;;11.78;100.00;98397.31;6229170;28;20757;-50
2023/08/12 01:36:31;;;;;;;5.30;3.27;;;;;;;11.72;100.00;98387.53;6226295;28;20232;-53
2023/08/12 01:39:35;;;;;;;3.33;2.93;;;;;;;11.72;100.00;98388.34;6231554;28;20278;-53
2023/08/12 01:42:39;;;;;;;2.77;2.57;;;;;;;11.72;100.00;98387.53;6212444;28;20223;-53
2023/08/12 01:45:43;;;;;;;2.97;2.67;;;;;;;11.71;100.00;98385.91;6235778;28;20305;-51
2023/08/12 01:48:45;;;;;;;2.77;2.57;;;;;;;11.71;100.00;98385.91;6211572;28;20632;-52
2023/08/12 01:51:47;;;;;;;2.70;2.50;;;;;;;11.70;100.00;98386.97;6229549;28;20785;-52
2023/08/12 01:54:49;;;;;;;3.17;2.30;;;;;;;11.73;100.00;98381.19;6230044;28;20339;-53
2023/08/12 01:57:52;;;;;;;3.73;2.80;;;;;;;11.71;100.00;98369.91;6229998;28;20287;-51
2023/08/12 02:00:54;;;;;;;3.60;2.63;;;;;;;11.66;100.00;98386.59;6215233;28;20233;-54
2023/08/12 02:03:56;;;;;;;3.20;2.73;;;;;;;11.61;100.00;98383.81;6210651;28;20223;-53
2023/08/12 02:06:58;;;;;;;3.63;3.10;;;;;;;11.59;100.00;98380.59;6224118;28;20312;-51
2023/08/12 02:10:00;;;;;;;3.03;2.50;;;;;;;11.54;100.00;98386.59;6228840;28;20234;-52
2023/08/12 02:13:03;;;;;;;3.27;2.97;;;;;;;11.53;100.00;98386.84;6211003;28;20987;-52
2023/08/12 02:16:05;;;;;;;4.37;2.63;;;;;;;11.52;100.00;98386.00;6232804;28;20231;-52
2023/08/12 02:19:07;;;;;;;3.27;2.70;;;;;;;11.47;100.00;98372.53;6229254;28;20697;-51
2023/08/12 02:22:10;;;;;;;3.73;2.77;;;;;;;11.57;100.00;98375.47;6228516;28;20235;-53
2023/08/12 02:25:12;;;;;;;2.83;2.57;;;;;;;11.59;100.00;98381.41;6206946;28;20760;-49
2023/08/12 02:28:14;;;;;;;2.83;2.60;;;;;;;11.56;100.00;98379.19;6210471;28;20242;-52
2023/08/12 02:31:16;;;;;;;4.93;2.77;;;;;;;11.57;100.00;98382.66;6235004;28;21136;-52
2023/08/12 02:34:19;;;;;;;3.00;2.70;;;;;;;11.57;100.00;98388.81;6209593;28;20739;-52
2023/08/12 02:37:21;;;;;;;4.17;2.80;;;;;;;11.49;100.00;98372.34;6223763;28;20705;-51
2023/08/12 02:40:23;;;;;;;3.83;3.20;;;;;;;11.52;100.00;98374.53;6229577;28;20747;-53
2023/08/12 02:43:25;;;;;;;3.10;2.60;;;;;;;11.50;100.00;98384.63;6228453;28;20890;-56
2023/08/12 02:46:27;;;;;;;3.03;2.80;;;;;;;11.48;100.00;98368.88;6223605;28;20304;-53
2023/08/12 02:49:30;;;;;;;2.90;2.70;;;;;;;11.49;100.00;98378.47;6211008;28;20309;-52
2023/08/12 02:52:32;;;;;;;2.80;2.60;;;;;;;11.52;100.00;98372.66;6228287;28;20597;-50
2023/08/12 02:55:34;;;;;;;2.90;2.67;;;;;;;11.50;100.00;98377.44;6210768;28;20230;-51
2023/08/12 02:58:37;;;;;;;3.03;2.83;;;;;;;11.53;100.00;98376.19;6227692;28;20224;-55
2023/08/12 03:01:41;;;;;;;3.73;3.00;;;;;;;11.48;100.00;98374.19;6210768;28;20238;-51
2023/08/12 03:04:44;;;;;;;4.20;2.87;;;;;;;11.48;100.00;98376.88;6210415;28;20239;-52
2023/08/12 03:07:46;;;;;;;4.33;2.83;;;;;;;11.44;100.00;98378.38;6228087;28;20847;-52
2023/08/12 03:10:48;;;;;;;3.80;2.97;;;;;;;11.37;100.00;98374.97;6210611;28;20317;-51
2023/08/12 03:13:51;;;;;;;2.83;2.63;;;;;;;11.38;100.00;98384.63;6210737;28;20239;-50
2023/08/12 03:16:53;;;;;;;3.33;2.97;;;;;;;11.35;100.00;98382.41;6227641;28;20704;-48
2023/08/12 03:19:59;;;;;;;3.77;3.03;;;;;;;11.06;100.00;98336.06;6227596;28;20946;-50
2023/08/12 03:23:03;;;;;;;3.77;3.10;;;;;;;11.40;100.00;98385.19;6208615;28;20231;-51
2023/08/12 03:26:05;;;;;;;3.20;2.90;;;;;;;11.41;100.00;98388.66;6226063;28;20310;-53
2023/08/12 03:29:08;;;;;;;3.40;3.10;;;;;;;11.37;100.00;98390.97;6209669;28;20243;-53
2023/08/12 03:32:13;;;;;;;3.70;2.87;;;;;;;11.38;100.00;98387.28;6215595;28;20231;-52
2023/08/12 03:35:15;;;;;;;4.20;3.37;;;;;;;11.33;100.00;98379.97;6210092;28;20313;-51
2023/08/12 03:38:21;;;;;;;4.70;3.03;;;;;;;11.27;100.00;98380.88;6209393;28;20235;-51
2023/08/12 03:41:23;;;;;;;3.23;2.90;;;;;;;11.31;100.00;98375.91;6227314;28;20261;-53
2023/08/12 03:44:26;;;;;;;4.40;3.50;;;;;;;11.33;100.00;98387.97;6209147;28;20235;-52
2023/08/12 03:47:28;;;;;;;3.37;2.70;;;;;;;11.35;100.00;98385.06;6215509;28;20235;-52
2023/08/12 03:50:35;;;;;;;3.40;3.10;;;;;;;11.34;100.00;98381.59;6211061;28;20239;-50
2023/08/12 03:53:37;;;;;;;3.57;3.27;;;;;;;11.34;100.00;98388.78;6226082;28;20693;-51
2023/08/12 03:56:40;;;;;;;3.03;2.67;;;;;;;11.34;100.00;98380.78;6209907;28;20606;-54
2023/08/12 03:59:42;;;;;;;3.03;2.73;;;;;;;11.31;100.00;98379.38;6226809;28;20328;-53
2023/08/12 04:02:44;;;;;;;3.67;3.10;;;;;;;11.36;100.00;98389.34;6204698;28;20231;-52
2023/08/12 04:05:52;;;;;;;3.10;2.90;;;;;;;11.37;100.00;98377.63;6222776;28;20239;-53
2023/08/12 04:08:55;;;;;;;2.90;2.70;;;;;;;11.39;100.00;98382.78;6209276;28;20334;-51
2023/08/12 04:11:57;;;;;;;3.73;3.03;;;;;;;11.33;100.00;98387.16;6230679;28;20238;-53
2023/08/12 04:15:02;;;;;;;4.20;3.47;;;;;;;11.29;100.00;98378.00;6227008;28;20227;-53
2023/08/12 04:18:04;;;;;;;3.63;3.20;;;;;;;11.30;100.00;98380.41;6229193;28;20223;-53
2023/08/12 04:21:06;;;;;;;3.97;2.60;;;;;;;11.34;100.00;98380.78;6226581;28;20216;-53
2023/08/12 04:24:08;;;;;;;4.10;3.50;;;;;;;11.35;100.00;98380.53;6226992;28;20258;-52
2023/08/12 04:27:11;;;;;;;5.60;3.50;;;;;;;11.32;100.00;98385.50;6221568;28;20243;-53
2023/08/12 04:30:13;;;;;;;3.27;3.00;;;;;;;11.36;100.00;98381.34;6208212;28;20629;-52
2023/08/12 04:33:16;;;;;;;3.70;2.77;;;;;;;11.35;100.00;98379.72;6232515;28;20226;-53
2023/08/12 04:36:19;;;;;;;5.50;3.27;;;;;;;11.35;100.00;98382.41;6208942;28;20216;-54
2023/08/12 04:39:22;;;;;;;4.20;3.30;;;;;;;11.41;100.00;98380.66;6213899;28;20907;-52
2023/08/12 04:42:24;;;;;;;3.60;3.30;;;;;;;11.43;100.00;98381.25;6232508;28;20573;-52
2023/08/12 04:45:27;;;;;;;3.03;2.83;;;;;;;11.43;100.00;98376.75;6213683;28;20254;-52
2023/08/12 04:48:31;;;;;;;3.07;2.77;;;;;;;11.46;100.00;98380.78;6211292;28;20744;-53
2023/08/12 04:51:33;;;;;;;4.90;3.23;;;;;;;11.45;100.00;98371.97;6231037;28;20235;-52
2023/08/12 04:54:36;;;;;;;4.57;3.10;;;;;;;11.50;100.00;98379.28;6212711;28;20310;-53
2023/08/12 04:57:39;;;;;;;4.20;3.80;;;;;;;11.48;100.00;98376.06;6230509;28;20257;-52
2023/08/12 05:00:41;;;;;;;4.10;3.27;;;;;;;11.42;100.00;98359.09;6231494;28;20231;-51
2023/08/12 05:03:43;;;;;;;3.40;3.10;;;;;;;11.54;100.00;98378.59;6212735;28;20626;-51
2023/08/12 05:06:45;;;;;;;3.67;3.37;;;;;;;11.53;100.00;98382.31;6230373;28;20879;-54
2023/08/12 05:09:47;;;;;;;3.83;3.43;;;;;;;11.58;100.00;98382.44;6230507;28;20239;-53
2023/08/12 05:12:52;;;;;;;3.47;3.17;;;;;;;11.64;100.00;98383.38;6212006;28;20713;-53
2023/08/12 05:15:54;;;;;;;3.80;3.50;;;;;;;11.69;100.00;98375.47;6229262;28;20278;-52
2023/08/12 05:18:56;;;;;;;3.93;3.43;;;;;;;11.74;100.00;98370.25;6230147;28;20626;-51
2023/08/12 05:21:58;;;;;;;5.17;3.70;;;;;;;11.77;100.00;98371.63;6212383;28;20309;-52
2023/08/12 05:25:01;;;;;;;3.40;3.10;;;;;;;11.79;100.00;98375.72;6222191;28;20253;-52
2023/08/12 05:28:03;;;;;;;4.13;3.13;;;;;;;11.83;100.00;98373.44;6227431;28;20243;-50
2023/08/12 05:31:05;;;;;;;3.77;3.43;;;;;;;11.85;100.00;98374.81;6229796;28;20232;-52
2023/08/12 05:34:07;;;;;;;3.10;2.90;;;;;;;11.86;100.00;98372.94;6234637;28;20267;-51
2023/08/12 05:37:09;;;;;;;3.40;3.10;;;;;;;11.93;100.00;98371.00;6229401;28;20251;-53
2023/08/12 05:40:11;;;;;;;4.87;3.60;;;;;;;11.94;100.00;98364.59;6229765;28;20231;-54
2023/08/12 05:43:13;;;;;;;4.17;3.77;;;;;;;12.01;100.00;98370.63;6229040;28;20239;-52
2023/08/12 05:46:15;;;;;;;4.10;3.50;;;;;;;12.06;100.00;98373.41;6228675;28;20242;-49
2023/08/12 05:49:17;;;;;;;3.70;3.40;;;;;;;12.09;100.00;98364.13;6234886;28;20238;-53
2023/08/12 05:52:19;;;;;;;3.77;3.47;;;;;;;12.16;100.00;98367.47;6229230;28;20235;-53
2023/08/12 05:55:22;;;;;;;6.07;3.83;;;;;;;12.25;100.00;98363.38;6225723;28;20242;-51
2023/08/12 05:58:23;;;;;;;4.57;4.00;;;;;;;12.37;100.00;98371.38;6228647;28;20285;-51
2023/08/12 06:01:25;;;;;;;4.13;3.80;;;;;;;12.45;100.00;98367.53;6227858;28;20235;-51
2023/08/12 06:04:28;;;;;;;4.17;3.77;;;;;;;12.55;100.00;98373.88;6233495;28;20246;-52
2023/08/12 06:07:30;;;;;;;4.27;3.87;;;;;;;12.64;100.00;98375.13;6228658;28;20235;-53
2023/08/12 06:10:33;;;;;;;4.57;3.47;;;;;;;12.72;100.00;98373.13;6228723;28;20239;-50
2023/08/12 06:13:35;;;;;;;3.77;3.47;;;;;;;12.79;100.00;98373.78;6228338;28;20258;-54
2023/08/12 06:16:37;;;;;;;3.27;2.97;;;;;;;12.86;100.00;98372.63;6229213;28;20236;-51
2023/08/12 06:19:39;;;;;;;3.43;3.13;;;;;;;12.95;100.00;98361.50;6207942;28;20235;-54
2023/08/12 06:22:41;;;;;;;4.47;3.40;;;;;;;13.05;100.00;98362.53;6226945;28;20224;-51
2023/08/12 06:25:43;;;;;;;3.33;3.13;;;;;;;13.16;100.00;98366.19;6224765;28;20620;-54
2023/08/12 06:28:45;;;;;;;3.90;3.50;;;;;;;13.28;100.00;98360.78;6227165;28;20326;-52
2023/08/12 06:31:47;;;;;;;3.90;3.47;;;;;;;13.39;100.00;98351.88;6227923;28;20243;-52
2023/08/12 06:34:49;;;;;;;3.90;3.50;;;;;;;13.48;100.00;98341.56;6229405;28;20220;-52
2023/08/12 06:37:51;;;;;;;3.77;3.47;;;;;;;13.66;100.00;98350.16;6223183;28;20231;-51
2023/08/12 06:40:54;;;;;;;3.73;3.43;;;;;;;13.77;100.00;98348.44;6228023;28;21065;-52
2023/08/12 06:43:56;;;;;;;3.87;3.47;;;;;;;13.91;100.00;98343.56;6227984;28;20242;-53
2023/08/12 06:46:58;;;;;;;3.50;3.20;;;;;;;14.07;100.00;98344.56;6227500;28;20231;-51
2023/08/12 06:50:00;;;;;;;3.50;3.20;;;;;;;14.23;100.00;98334.84;6228189;28;20767;-54
2023/08/12 06:53:02;;;;;;;3.80;3.50;;;;;;;14.45;100.00;98339.16;6227371;28;20693;-53
2023/08/12 06:56:05;;;;;;;3.37;3.07;;;;;;;14.64;100.00;98339.66;6221703;28;20224;-52
2023/08/12 06:59:07;;;;;;;3.53;3.23;;;;;;;14.84;100.00;98339.06;6227295;28;20232;-51
2023/08/12 07:02:09;;;;;;;3.73;3.23;;;;;;;15.04;100.00;98345.72;6228776;28;20228;-55
2023/08/12 07:05:12;;;;;;;4.10;3.50;;;;;;;15.26;100.00;98348.31;6227631;28;20704;-52
2023/08/12 07:08:15;;;;;;;4.10;3.67;;;;;;;15.49;100.00;98340.72;6228279;28;20300;-54
2023/08/12 07:11:17;;;;;;;3.30;3.00;;;;;;;15.72;100.00;98336.09;6227500;28;20264;-54
2023/08/12 07:14:19;;;;;;;3.67;3.37;;;;;;;15.92;100.00;98333.50;6227345;28;20692;-54
2023/08/12 07:17:21;;;;;;;3.10;2.80;;;;;;;16.11;100.00;98339.25;6227149;28;20795;-52
2023/08/12 07:20:24;;;;;;;3.50;3.20;;;;;;;16.31;100.00;98337.75;6226215;28;20739;-54
2023/08/12 07:23:27;;;;;;;3.00;2.80;;;;;;;16.48;100.00;98332.94;6209021;28;20723;-53
2023/08/12 07:26:29;;;;;;;3.53;2.87;;;;;;;16.68;100.00;98338.38;6227972;28;20250;-54
2023/08/12 07:29:31;;;;;;;3.37;3.07;;;;;;;16.85;100.00;98324.75;6225937;28;20259;-53
2023/08/12 07:32:33;;;;;;;3.30;3.10;;;;;;;17.14;100.00;98327.75;6228080;28;20227;-50
2023/08/12 07:35:35;;;;;;;3.00;2.70;;;;;;;17.38;100.00;98329.91;6225947;28;20242;-54
2023/08/12 07:38:38;;;;;;;3.10;2.70;;;;;;;17.59;100.00;98326.13;6233629;28;20243;-53
2023/08/12 07:41:40;;;;;;;3.10;2.80;;;;;;;17.79;100.00;98320.72;6227909;28;20234;-52
2023/08/12 07:44:42;;;;;;;3.53;2.83;;;;;;;17.96;100.00;98333.91;6226178;28;20231;-54
2023/08/12 07:47:43;;;;;;;3.40;3.10;;;;;;;18.14;100.00;98327.13;6209710;28;20239;-54
2023/08/12 07:50:48;;;;;;;3.00;2.80;;;;;;;18.29;100.00;98329.75;6227431;28;20223;-53
2023/08/12 07:53:52;;;;;;;3.07;2.77;;;;;;;18.42;100.00;98320.25;6226504;28;20234;-55
2023/08/12 07:56:54;;;;;;;2.70;2.50;;;;;;;18.62;100.00;98323.91;6224493;28;20234;-53
2023/08/12 07:59:55;;;;;;;4.93;3.10;;;;;;;18.77;98.09;98324.69;6226576;28;20720;-53
2023/08/12 08:02:57;;;;;;;3.37;2.93;;;;;;;18.87;97.30;98320.31;6226353;28;20322;-53
2023/08/12 08:06:00;;;;;;;4.07;2.90;;;;;;;19.04;95.60;98324.25;6225288;28;20224;-53
2023/08/12 08:09:04;;;;;;;3.20;2.90;;;;;;;19.23;94.73;98326.28;6227207;28;20231;-54
2023/08/12 08:12:07;;;;;;;3.27;3.00;;;;;;;19.41;93.82;98319.34;6231894;28;20351;-52
2023/08/12 08:15:10;;;;;;;2.60;2.40;;;;;;;19.48;92.63;98315.25;6230242;28;20227;-54
2023/08/12 08:18:12;;;;;;;2.87;2.40;;;;;;;19.72;89.90;98315.31;6229902;28;20207;-54
2023/08/12 08:21:15;;;;;;;3.03;2.73;;;;;;;19.84;89.71;98310.31;6230813;28;20604;-53
2023/08/12 08:24:17;;;;;;;3.20;2.90;;;;;;;19.97;89.05;98306.13;6237402;28;20236;-53
2023/08/12 08:27:19;;;;;;;3.67;2.70;;;;;;;20.14;86.69;98311.06;6211556;28;20289;-54
2023/08/12 08:30:22;;;;;;;2.90;2.50;;;;;;;20.23;83.76;98309.34;6229811;28;20239;-54
2023/08/12 08:33:26;;;;;;;2.50;2.30;;;;;;;20.30;84.68;98299.00;6227600;28;20638;-53
2023/08/12 08:36:28;;;;;;;3.60;2.70;;;;;;;20.40;84.64;98303.47;6210434;28;20227;-52
2023/08/12 08:39:31;;;;;;;2.40;2.20;;;;;;;20.51;83.96;98290.63;6229480;28;20314;-54
2023/08/12 08:42:34;;;;;;;4.07;2.40;;;;;;;20.51;82.46;98288.72;6227842;28;20299;-53
2023/08/12 08:45:37;;;;;;;2.77;2.30;;;;;;;20.64;82.77;98298.03;6230525;28;22326;-53
2023/08/12 08:48:39;;;;;;;3.87;2.30;;;;;;;20.75;83.24;98302.22;6231014;28;20330;-55
2023/08/12 08:51:43;;;;;;;2.10;1.90;;;;;;;21.30;67.33;98299.75;6226773;28;20242;-53
2023/08/12 08:54:46;;;;;;;1.90;1.80;;;;;;;21.38;73.89;98301.00;6221809;28;20709;-53
2023/08/12 08:57:49;;;;;;;2.70;2.50;;;;;;;21.44;67.68;98297.09;6227646;28;20227;-51
2023/08/12 09:00:51;;;;;;;2.70;2.23;;;;;;;21.61;73.67;98301.94;6230988;28;20581;-53
2023/08/12 09:03:54;;;;;;;2.83;1.97;;;;;;;21.59;70.76;98306.88;6230332;28;20238;-52
2023/08/12 09:06:58;;;;;;;2.67;2.00;;;;;;;21.76;66.10;98303.56;6213751;28;20266;-53
2023/08/12 09:10:03;;;;;;;4.70;2.10;;;;;;;21.77;70.08;98306.00;6230169;28;20251;-55
2023/08/12 09:13:06;;;;;;;4.00;2.30;;;;;;;21.73;71.35;98290.63;6229983;28;20841;-55
2023/08/12 09:16:09;;;;;;;2.17;2.00;;;;;;;21.88;69.80;98303.91;6204450;28;20716;-53
2023/08/12 09:19:14;;;;;;;2.63;2.10;;;;;;;22.05;65.49;98304.09;6225289;28;20720;-54
2023/08/12 09:22:18;;;;;;;4.00;2.70;;;;;;;22.25;62.64;98305.63;6210461;28;20235;-50
2023/08/12 09:25:21;;;;;;;2.43;2.23;;;;;;;22.43;63.31;98305.84;6230065;28;20338;-52
2023/08/12 09:28:24;;;;;;;3.07;2.37;;;;;;;22.51;62.21;98303.22;6228612;28;20318;-52
2023/08/12 09:31:32;;;;;;;2.67;2.30;;;;;;;22.51;67.64;98302.38;6229731;28;20234;-55
2023/08/12 09:34:34;;;;;;;2.90;2.57;;;;;;;22.58;63.84;98302.78;6225708;28;20235;-54
2023/08/12 09:37:36;;;;;;;2.70;2.50;;;;;;;22.63;65.04;98305.41;6226428;28;20327;-55
2023/08/12 09:40:40;;;;;;;2.50;2.30;;;;;;;22.61;68.07;98308.44;6231710;28;20315;-52
2023/08/12 09:43:45;;;;;;;4.13;2.93;;;;;;;22.72;62.13;98310.91;6230703;28;20236;-52
2023/08/12 09:46:47;;;;;;;2.90;2.70;;;;;;;22.80;64.92;98302.81;6229419;28;20305;-55
2023/08/12 09:49:50;;;;;;;2.53;2.30;;;;;;;22.95;60.43;98295.47;6234495;28;20242;-55
2023/08/12 09:52:53;;;;;;;3.20;2.30;;;;;;;23.01;63.93;98292.34;6233920;28;20231;-54
2023/08/12 09:56:04;;;;;;;3.28;2.35;;;;;;;23.02;64.95;98295.84;6230916;28;20251;-54
2023/08/12 09:59:07;;;;;;;3.00;2.75;;;;;;;23.03;65.19;98292.81;6230190;28;20227;-51
2023/08/12 10:02:13;;;;;;;2.50;2.30;;;;;;;;;;6225795;28;20371;-52
2023/08/12 10:05:28;;;;;;;3.33;2.35;;;;;;;23.08;64.66;98281.81;6229352;28;20243;-52
2023/08/12 10:08:32;;;;;;;3.03;2.72;;;;;;;23.24;61.57;98287.69;6231593;28;20246;-54
2023/08/12 10:11:35;;;;;;;2.80;2.60;;;;;;;23.31;66.65;98290.78;6225812;28;20795;-54
2023/08/12 10:14:38;;;;;;;2.65;2.42;;;;;;;23.40;59.88;98288.94;6229254;28;20232;-54
2023/08/12 10:17:41;;;;;;;5.15;3.10;;;;;;;23.56;60.23;98273.03;6227778;28;20227;-51
2023/08/12 10:20:45;;;;;;;4.10;2.85;;;;;;;23.60;61.02;98275.94;6230198;28;20418;-51
2023/08/12 10:23:49;;;;;;;4.35;3.00;;;;;;;23.56;65.01;98281.19;6228786;28;20246;-53
2023/08/12 10:26:54;;;;;;;3.45;2.33;;;;;;;23.68;61.37;98272.47;6227804;28;20322;-54
2023/08/12 10:30:00;;;;;;;3.17;2.63;;;;;;;23.78;63.51;98272.19;6229032;28;20236;-53
2023/08/12 10:33:03;;;;;;;2.85;2.40;;;;;;;23.83;61.45;98280.19;6227817;28;20236;-53
2023/08/12 10:36:06;;;;;;;2.30;2.10;;;;;;;23.93;57.98;98276.41;6228528;28;20253;-53
2023/08/12 10:39:10;;;;;;;2.58;2.30;;;;;;;23.89;58.73;98269.97;6221568;28;20223;-54
2023/08/12 10:42:12;;;;;;;4.97;2.47;;;;;;;24.05;58.27;98275.81;6229305;28;20212;-52
2023/08/12 10:45:17;;;;;;;2.50;2.30;;;;;;;24.08;64.39;98275.16;6222177;28;20212;-53
2023/08/12 10:48:23;;;;;;;2.75;2.55;;;;;;;24.07;67.22;98276.28;6225050;28;20224;-55
2023/08/12 10:51:48;;;;;;;2.85;1.98;;;;;;;24.18;58.51;98253.09;6233550;28;20235;-52
2023/08/12 10:54:52;;;;;;;3.58;2.25;;;;;;;24.35;55.83;98252.34;6227146;28;20236;-53
2023/08/12 10:57:58;;;;;;;2.92;2.10;;;;;;;24.58;54.22;98255.75;6230372;28;20236;-53
2023/08/12 11:01:00;;;;;;;2.00;1.90;;;;;;;24.60;53.69;98256.25;6227820;28;20301;-56
2023/08/12 11:04:17;;;;;;;1.90;1.80;;;;;;;24.51;59.82;98244.53;6228082;28;20314;-53
2023/08/12 11:07:22;;;;;;;3.22;1.90;;;;;;;24.51;54.81;98237.19;6214481;28;20240;-55
2023/08/12 11:10:30;;;;;;;2.65;1.70;;;;;;;24.66;55.38;98244.06;6228387;28;20309;-53
2023/08/12 11:13:52;;;;;;;2.13;1.92;;;;;;;24.71;57.38;98243.91;6230171;28;20327;-53
2023/08/12 11:16:54;;;;;;;2.30;1.70;;;;;;;24.56;61.51;98228.84;6221025;28;20236;-54
2023/08/12 11:19:57;;;;;;;3.20;2.00;;;;;;;24.67;55.45;98235.56;6227668;28;20238;-54
2023/08/12 11:23:02;;;;;;;1.90;1.80;;;;;;;24.71;56.48;98231.09;6221880;28;20228;-52
2023/08/12 11:26:04;;;;;;;2.20;2.00;;;;;;;24.82;55.85;98231.56;6229688;28;20230;-51
2023/08/12 11:29:11;;;;;;;6.20;1.92;;;;;;;24.82;59.40;98228.84;6229578;28;20288;-53
2023/08/12 11:32:14;;;;;;;1.92;1.75;;;;;;;25.01;52.48;98228.50;6230213;28;20713;-54
2023/08/12 11:35:17;;;;;;;2.47;2.03;;;;;;;25.07;54.02;98220.97;6229543;28;20294;-53
2023/08/12 11:38:20;;;;;;;3.47;1.70;;;;;;;25.14;53.54;98219.38;6228074;28;20242;-52
2023/08/12 11:41:23;;;;;;;2.70;1.70;;;;;;;25.15;54.09;98204.59;6228217;28;20226;-53
2023/08/12 11:44:25;;;;;;;1.55;1.45;;;;;;;25.23;55.02;98211.19;6229186;28;20242;-53
2023/08/12 11:47:27;;;;;;;3.17;1.58;;;;;;;25.47;50.00;98202.44;6237006;28;20235;-54
2023/08/12 11:50:30;;;;;;;1.98;1.67;;;;;;;25.47;50.94;98199.72;6231029;28;20271;-54
2023/08/12 11:53:32;;;;;;;2.10;1.80;;;;;;;25.47;50.20;98191.53;6232425;28;20239;-53
2023/08/12 11:56:35;;;;;;;1.65;1.55;;;;;;;25.51;49.31;98197.13;6232599;28;20270;-53
2023/08/12 11:59:38;;;;;;;1.50;1.40;;;;;;;25.60;50.11;98185.03;6227746;28;20253;-52
2023/08/12 12:02:46;;;;;;;2.40;1.98;;;;;;;25.56;51.28;98180.56;6241676;28;20326;-53
2023/08/12 12:05:48;;;;;;;3.63;1.85;;;;;;;25.74;48.63;98171.97;6232623;28;20239;-53
2023/08/12 12:08:53;;;;;;;2.30;1.63;;;;;;;25.76;51.86;98174.41;6233016;28;20358;-54
2023/08/12 12:11:55;;;;;;;1.65;1.40;;;;;;;25.71;47.73;98167.19;6233434;28;20394;-55
2023/08/12 12:14:58;;;;;;;3.15;1.50;;;;;;;25.58;50.50;98156.50;6232101;28;20309;-53
2023/08/12 12:18:00;;;;;;;2.30;1.42;;;;;;;25.61;49.17;98162.06;6232838;28;20234;-54
2023/08/12 12:21:02;;;;;;;2.25;1.58;;;;;;;25.62;48.87;98166.44;6232745;28;20223;-54
2023/08/12 12:24:04;;;;;;;2.83;1.58;;;;;;;25.62;44.74;98168.38;6233304;28;20239;-54
2023/08/12 12:27:07;;;;;;;2.28;1.50;;;;;;;25.67;48.61;98160.00;6232266;28;20208;-53
2023/08/12 12:30:10;;;;;;;1.50;1.40;;;;;;;25.70;45.97;98157.38;6232525;28;20240;-52
2023/08/12 12:33:13;;;;;;;2.35;1.42;;;;;;;25.70;43.20;98153.84;6231733;28;20307;-54
2023/08/12 12:36:15;;;;;;;1.50;1.25;;;;;;;25.86;45.03;98165.84;6231780;28;20882;-52
2023/08/12 12:39:18;;;;;;;1.73;1.35;;;;;;;25.81;44.04;98167.94;6232176;28;20950;-53
2023/08/12 12:42:20;;;;;;;1.30;1.20;;;;;;;25.65;44.16;98135.75;6232378;28;20231;-53
2023/08/12 12:45:22;;;;;;;1.45;1.30;;;;;;;25.78;43.95;98158.50;6228393;28;20314;-54
2023/08/12 12:48:24;;;;;;;1.50;1.40;;;;;;;25.90;44.10;98144.94;6232481;28;20612;-52
2023/08/12 12:51:27;;;;;;;1.42;1.33;;;;;;;25.84;44.83;98148.19;6229839;28;20727;-53
2023/08/12 12:54:30;;;;;;;1.60;1.27;;;;;;;25.83;45.59;98147.41;6232807;28;20281;-54
2023/08/12 12:57:33;;;;;;;3.55;1.42;;;;;;;25.73;45.77;98147.75;6232745;28;20242;-55
2023/08/12 13:00:35;;;;;;;2.65;1.30;;;;;;;25.71;45.86;98150.00;6232081;28;20222;-55
2023/08/12 13:03:37;;;;;;;1.45;1.08;;;;;;;25.76;44.17;98138.13;6229881;28;20227;-52
2023/08/12 13:06:40;;;;;;;1.75;1.27;;;;;;;25.70;44.72;98126.56;6232197;28;20235;-53
2023/08/12 13:09:42;;;;;;;1.35;1.25;;;;;;;25.63;45.61;98129.03;6232203;28;20293;-55
2023/08/12 13:12:45;;;;;;;1.83;1.20;;;;;;;25.66;43.99;98123.69;6214293;28;20242;-52
2023/08/12 13:15:47;;;;;;;1.98;1.52;;;;;;;25.66;46.14;98129.16;6235745;28;20246;-54
2023/08/12 13:18:49;;;;;;;2.40;1.33;;;;;;;25.66;44.54;98122.88;6237796;28;20600;-53
2023/08/12 13:21:52;;;;;;;2.03;1.40;;;;;;;25.65;47.46;98132.22;6232816;28;20731;-53
2023/08/12 13:24:54;;;;;;;1.20;1.10;;;;;;;25.64;46.13;98131.41;6228028;28;20228;-53
2023/08/12 13:27:57;;;;;;;1.20;1.10;;;;;;;25.63;45.93;98129.03;6228868;28;20815;-55
2023/08/12 13:30:59;;;;;;;1.92;1.35;;;;;;;25.64;46.18;98125.97;6231626;28;20232;-54
2023/08/12 13:34:02;;;;;;;1.75;1.20;;;;;;;25.58;46.60;98118.31;6227812;28;20228;-55
2023/08/12 13:37:05;;;;;;;1.42;1.30;;;;;;;25.54;46.50;98114.63;6231672;28;20309;-54
2023/08/12 13:40:09;;;;;;;2.83;1.60;;;;;;;25.56;46.87;98109.63;6230864;28;20231;-55
2023/08/12 13:43:11;;;;;;;1.45;1.27;;;;;;;25.58;46.97;98104.66;6227340;28;20330;-51
2023/08/12 13:46:13;;;;;;;1.30;1.20;;;;;;;25.47;48.23;98101.50;6230968;28;20610;-52
2023/08/12 13:49:15;;;;;;;1.23;1.10;;;;;;;25.36;48.66;98103.78;6230214;28;20236;-52
2023/08/12 13:52:17;;;;;;;2.35;1.40;;;;;;;25.34;46.93;98100.59;6231062;28;20376;-54
2023/08/12 13:55:19;;;;;;;3.28;1.70;;;;;;;25.50;45.31;98100.03;6230858;28;20656;-53
2023/08/12 13:58:22;;;;;;;1.30;1.20;;;;;;;25.80;42.54;98090.72;6231165;28;20242;-55
2023/08/12 14:01:24;;;;;;;1.42;1.33;;;;;;;25.78;44.63;98095.72;6231026;28;20274;-53
2023/08/12 14:04:26;;;;;;;2.38;1.60;;;;;;;25.72;46.66;98088.84;6241661;28;20771;-54
2023/08/12 14:07:28;;;;;;;2.72;1.30;;;;;;;25.41;49.56;98087.22;6228975;28;20243;-55
2023/08/12 14:10:31;;;;;;;1.63;1.25;;;;;;;25.25;50.34;98079.94;6229798;28;20241;-52
2023/08/12 14:13:33;;;;;;;2.53;1.25;;;;;;;25.13;48.11;98086.91;6230114;28;20231;-55
2023/08/12 14:16:36;;;;;;;1.77;1.10;;;;;;;25.31;47.27;98075.91;6229927;28;20235;-54